Nearby METAR Reports

 

ENRY - Rygge (nor-Afb), Norway
Distance from station: SØ 12km
Oppdatert: 27/06/2019 10:20
Klart
Klart
 Vind fra N
Vind: N 17 km/h
Temperatur: 16°C
Duggpunkt: 7°C
Fuktighet: 55%
Barometer: 1022 hPa
Oversikt: Klart
Visibility: greater than 10 km
2019/06/27 08:20 ENRY 270820Z 35009KT 300V030 CAVOK 16/07 Q1022 NOSIG
ENTO - Torp (civ/Nor-Af, Norway
Distance from station: SV 34km
Oppdatert: 27/06/2019 10:50
Klart
Klart
 Vind fra NNØ
Vind: NNØ 19 km/h
Temperatur: 17°C
Duggpunkt: 8°C
Fuktighet: 56%
Barometer: 1022 hPa
Oversikt: Klart
Visibility: greater than 10 km
2019/06/27 08:50 ENTO 270850Z 02010KT CAVOK 17/08 Q1022 NOSIG
 
ENNO - Notodden, Norway
Distance from station: V 80km
Oppdatert: 27/06/2019 10:50
Klart
Klart
 Vind fra VNV
Vind: VNV 9 km/h
Temperatur: 19°C
Duggpunkt: 6°C
Fuktighet: 43%
Barometer: 1022 hPa
Oversikt: Klart
Visibility: greater than 10 km
2019/06/27 08:50 ENNO 270850Z 30005KT CAVOK 19/06 Q1022
ENGM - Oslo/Gardermoen, Norway
Distance from station: NNØ 88km
Oppdatert: 27/06/2019 10:50
Few Clouds
Few Clouds
 Vind fra N
Vind: N 17 km/h
Temperatur: 16°C
Duggpunkt: 6°C
Fuktighet: 52%
Barometer: 1022 hPa
Clouds: Few Clouds
Visibility: 10 km
Cloud details: Few Clouds 1341 m
2019/06/27 08:50 ENGM 270850Z 36009KT 330V030 9999 FEW044 16/06 Q1022 NOSIG
 
ESOK - Karlstad North, Sweden
Distance from station: Ø 153km
Oppdatert: 27/06/2019 10:50
Klart
Klart
 Vind fra NNV
Vind: NNV 19 km/h
Temperatur: 16°C
Duggpunkt: 8°C
Fuktighet: 59%
Barometer: 1020 hPa
Oversikt: Klart
Visibility: greater than 10 km
2019/06/27 08:50 ESOK 270850Z 33010KT CAVOK 16/08 Q1020
ESST - Torsby, Sweden
Distance from station: ØNØ 154km
Oppdatert: 27/06/2019 10:50
Klart
Klart
 Vind fra NNØ
Vind: NNØ 15 km/h
Temperatur: 17°C
Duggpunkt: 7°C
Fuktighet: 52%
Barometer: 1021 hPa
Oversikt: Klart
Visibility: greater than 10 km
2019/06/27 08:50 ESST 270850Z 02008KT 350V090 CAVOK 17/07 Q1021
 
ESGT - Trollhattan (pvt, Sweden
Distance from station: SØ 159km
Oppdatert: 27/06/2019 10:50
Klart
Klart
 Vind fra NNØ
Vind: NNØ 15 km/h
Temperatur: 16°C
Duggpunkt: 10°C
Fuktighet: 68%
Barometer: 1021 hPa
Oversikt: Klart
Visibility: greater than 10 km
2019/06/27 08:50 ESGT 270850Z 02008KT 340V070 CAVOK 16/10 Q1021
ESIB - Satenas (swe-Afb, Sweden
Distance from station: SØ 164km
Oppdatert: 27/06/2019 10:50
Klart
Klart
 Vind fra NNØ
Vind: NNØ 19 km/h
Temperatur: 15°C
Duggpunkt: 10°C
Fuktighet: 72%
Barometer: 1020 hPa
Oversikt: Klart
Visibility: greater than 10 km
2019/06/27 08:50 ESIB 270850Z 02010KT CAVOK 15/10 Q1020
 
ENCN - Kristiansand/Kje, Norway
Distance from station: SV 202km
Oppdatert: 27/06/2019 10:50
Klart
Klart
 Vind fra SSØ
Vind: SSØ 7 km/h
Temperatur: 20°C
Duggpunkt: 8°C
Fuktighet: 46%
Barometer: 1022 hPa
Oversikt: Klart
Visibility: greater than 10 km
2019/06/27 08:50 ENCN 270850Z 16004KT 090V220 CAVOK 20/08 Q1022
EKSN - Sindal Airport, Denmark
Distance from station: S 217km
Oppdatert: 27/06/2019 10:50
Delvis skyet
Delvis skyet
 Vind fra NNV
Vind: NNV 17 km/h
Temperatur: 19°C
Duggpunkt: 14°C
Fuktighet: 73%
Barometer: 1021 hPa
Clouds: Delvis skyet
Visibility: 10 km
Cloud details: Delvis skyet 427 m
2019/06/27 08:50 EKSN 270850Z 33009KT 9999 SCT014 19/14 Q1021
 
ESGG - Goteborg/Landvet, Sweden
Distance from station: SSØ 220km
Oppdatert: 27/06/2019 10:50
Hovedsaklig skyet
Hovedsaklig skyet
 Vind fra NNØ
Vind: NNØ 15 km/h
Temperatur: 18°C
Duggpunkt: 14°C
Fuktighet: 78%
Barometer: 1019 hPa
Clouds: Hovedsaklig skyet
Visibility: 10 km
Cloud details: Hovedsaklig skyet 488 m
2019/06/27 08:50 ESGG 270850Z 03008KT 9999 BKN016 18/14 Q1019
ESGR - Skovde Airport, Sweden
Distance from station: ØSØ 221km
Oppdatert: 27/06/2019 10:50
Hovedsaklig skyet
Hovedsaklig skyet
 Vind fra NNV
Vind: NNV 11 km/h
Temperatur: 16°C
Duggpunkt: 11°C
Fuktighet: 72%
Barometer: 1020 hPa
Clouds: Hovedsaklig skyet
Visibility: 10 km
Cloud details: Few Clouds 2316 m
Delvis skyet 2987 m
Hovedsaklig skyet 4877 m
2019/06/27 08:50 ESGR 270850Z AUTO 33006KT 290V360 9999 FEW076/// SCT098/// BKN160/// 16/11 Q1020
 
ESOE - Orebro (private), Sweden
Distance from station: Ø 252km
Oppdatert: 27/06/2019 10:50
Klart
Klart
 Vind fra N
Vind: N 13 km/h
Temperatur: 17°C
Duggpunkt: 8°C
Fuktighet: 56%
Barometer: 1019 hPa
Clouds: Klart
Visibility: 10 km
2019/06/27 08:50 ESOE 270850Z AUTO 01007KT 320V060 9999 R01///// R19///// NCD 17/08 Q1019
EKYT - Alborg, Denmark
Distance from station: S 264km
Oppdatert: 27/06/2019 10:50
Klart
Klart
 Vind fra VNV
Vind: VNV 19 km/h
Temperatur: 18°C
Duggpunkt: 11°C
Fuktighet: 64%
Barometer: 1021 hPa
Clouds: Klart
Visibility: 10 km
2019/06/27 08:50 EKYT 270850Z AUTO 29010KT 270V330 9999 NCD 18/11 Q1021
 
ENSG - Sogndal/Haukasen, Norway
Distance from station: NV 269km
Oppdatert: 27/06/2019 10:50
Klart
Klart
 Vind fra SV
Vind: SV 11 km/h
Temperatur: 12°C
Duggpunkt: 4°C
Fuktighet: 58%
Barometer: 1025 hPa
Oversikt: Klart
Visibility: greater than 10 km
2019/06/27 08:50 ENSG 270850Z 23006KT CAVOK 12/04 Q1025 RMK WIND 3806FT VRB03KT
ESGJ - Jonkoping Airpor, Sweden
Distance from station: SØ 273km
Oppdatert: 27/06/2019 10:50
Few Clouds
Few Clouds
 Vind fra N
Vind: N 15 km/h
Temperatur: 16°C
Duggpunkt: 11°C
Fuktighet: 72%
Barometer: 1019 hPa
Clouds: Few Clouds
Visibility: 10 km
Cloud details: Few Clouds 610 m
2019/06/27 08:50 ESGJ 270850Z 36008KT 9999 FEW020 16/11 Q1019
 
ENZV - Stavanger/Sola(A, Norway
Distance from station: V 292km
Oppdatert: 27/06/2019 10:50
Few Clouds
Few Clouds
 Vind fra NNV
Vind: NNV 20 km/h
Temperatur: 14°C
Duggpunkt: 8°C
Fuktighet: 67%
Barometer: 1026 hPa
Clouds: Few Clouds
Visibility: 10 km
Cloud details: Few Clouds 610 m
2019/06/27 08:50 ENZV 270850Z 33011KT 9999 FEW020 14/08 Q1026
ESSD - Borlange (swe-Af, Sweden
Distance from station: ØNØ 292km
Oppdatert: 27/06/2019 10:50
Few Clouds
Few Clouds
 Vind fra NNV
Vind: NNV 19 km/h
Temperatur: 16°C
Duggpunkt: 6°C
Fuktighet: 52%
Barometer: 1019 hPa
Clouds: Few Clouds
Visibility: 10 km
Cloud details: Few Clouds 1341 m
2019/06/27 08:50 ESSD 270850Z AUTO 34010KT 310V010 9999 FEW044/// 16/06 Q1019
 
ENSO - Stord/Soerstokke, Norway
Distance from station: V 300km
Oppdatert: 27/06/2019 10:50
Few Clouds
Few Clouds
 Vind fra NV
Vind: NV 15 km/h
Temperatur: 14°C
Duggpunkt: 9°C
Fuktighet: 72%
Barometer: 1027 hPa
Clouds: Few Clouds
Visibility: 10 km
Cloud details: Few Clouds 792 m
Few Clouds 1067 m
2019/06/27 08:50 ENSO 270850Z 31008KT 9999 FEW026TCU FEW035 14/09 Q1027
ESCF - Linkoping/Malmen, Sweden
Distance from station: ØSØ 305km
Oppdatert: 27/06/2019 10:50
Few Clouds
Few Clouds
 Vind fra NV
Vind: NV 17 km/h
Temperatur: 18°C
Duggpunkt: 9°C
Fuktighet: 56%
Barometer: 1018 hPa
Clouds: Few Clouds
Visibility: 10 km
Cloud details: Few Clouds 1067 m
2019/06/27 08:50 ESCF 270850Z 31009KT 270V340 9999 FEW035 18/09 Q1018